Hauptseite
METAR-TAF:

METAR-TAF

Flughäfen :

Clearfield-Lawrence Airport

Clearfield, Pennsylvania, Vereinigte Staaten

Breite: 41-02-48N, Länge: 078-24-42W, Höhe: 462 m

Beobachtung

Neuester Wetterbericht von vor 30 Minuten, um 19:54 UTC
Wind 7 kt aus Nordwest
Temperatur 10°C
Luftfeuchtigkeit 57%
Luftdruck 1018 hPa
Sichtweite: 16.1 km
Leicht bewölkt in der Höhe von 3000 ft

METAR: KFIG 241954Z AUTO 31007KT 10SM FEW030 10/02 A3007 RMK AO2 SLP183 T01000017 $

Zeit: 16:24 (20:24 UTC)


TAF: fehlend

Wetterbeobachtungen und Prognosen von mehr als 4000 Flughäfen (METAR und TAF Bericht).

Die verfügbaren Stationen werden durch gelbe und rote Markierungen auf der Karte dargestellt.

Führen Sie die Maus auf sie, um den Namen der Station zu sehen.

Darauf klicken, um die Beobachtung von Wetterbeobachtungen und Prognosen zu sehen.

Um die Karte zu ändern : klicken Sie auf den grünen Tasten mit einem schwarzen Kreuz Zum Vergrößern, auf den grünen Button mit einem Gedankenstrich zu verkleinern, oder auf die grünen Pfeile für benachbarte Karten.


METAR-TAF: